Time;durP1;ratioP1;P1;durP2;ratioP2;P2;SDS_P1;SDS_P2;PMS_P1;PMS_P2;Temp;Humidity;BMP_temperature;BMP_pressure;BME280_temperature;BME280_humidity;BME280_pressure;Samples;Min_cycle;Max_cycle;Signal;HPM_P1;HPM_P2
2024/01/23 00:00:38;;;;;;;;;;;6.80;99.90;;;;;;4173663;23;19943;-78
2024/01/23 00:03:25;;;;;;;;;;;6.90;99.90;;;;;;5026860;28;19917;-77
2024/01/23 00:06:11;;;;;;;;;;;6.90;99.90;;;;;;5003588;28;19946;-76
2024/01/23 00:08:58;;;;;;;;;;;7.00;99.90;;;;;;4998170;28;20285;-77
2024/01/23 00:11:43;;;;;;;;;;;7.00;99.90;;;;;;4992935;28;19921;-77
2024/01/23 00:14:29;;;;;;;;;;;7.10;99.90;;;;;;4992679;28;19920;-76
2024/01/23 00:17:18;;;;;;;;;;;7.00;99.90;;;;;;5013153;28;19928;-77
2024/01/23 00:20:04;;;;;;;;;;;7.00;99.90;;;;;;5011548;28;19987;-77
2024/01/23 00:22:50;;;;;;;;;;;7.00;99.90;;;;;;5012420;28;19921;-77
2024/01/23 00:25:36;;;;;;;;;;;7.00;99.90;;;;;;5006440;28;20007;-76
2024/01/23 00:28:22;;;;;;;;;;;7.00;99.90;;;;;;5008596;28;19984;-77
2024/01/23 00:31:08;;;;;;;;;;;7.00;99.90;;;;;;5019735;28;20645;-77
2024/01/23 00:33:54;;;;;;;;;;;6.90;99.90;;;;;;5022375;28;19913;-76
2024/01/23 00:36:41;;;;;;;;;;;6.90;99.90;;;;;;5006136;28;20029;-77
2024/01/23 00:39:27;;;;;;;;;;;6.90;99.90;;;;;;5005836;28;19953;-77
2024/01/23 00:42:13;;;;;;;;;;;6.90;99.90;;;;;;5005807;28;19984;-77
2024/01/23 00:44:59;;;;;;;;;;;6.90;99.90;;;;;;5013790;28;20584;-76
2024/01/23 00:47:45;;;;;;;;;;;6.90;99.90;;;;;;5004465;28;19913;-76
2024/01/23 00:50:31;;;;;;;;;;;6.90;99.90;;;;;;5017063;28;20324;-77
2024/01/23 00:53:17;;;;;;;;;;;6.80;99.90;;;;;;5005985;28;19913;-77
2024/01/23 00:56:03;;;;;;;;;;;6.80;99.90;;;;;;4996506;28;20396;-76
2024/01/23 00:58:49;;;;;;;;;;;6.90;99.90;;;;;;5001075;28;19923;-77
2024/01/23 01:01:35;;;;;;;;;;;6.70;99.90;;;;;;5008147;28;20484;-76
2024/01/23 01:04:21;;;;;;;;;;;6.50;99.90;;;;;;5009368;28;19920;-77
2024/01/23 01:07:09;;;;;;;;;;;6.50;99.90;;;;;;5016277;28;20326;-76
2024/01/23 01:09:55;;;;;;;;;;;6.50;99.90;;;;;;4993481;28;20400;-76
2024/01/23 01:12:41;;;;;;;;;;;6.50;99.90;;;;;;4994156;28;19918;-77
2024/01/23 01:15:27;;;;;;;;;;;6.40;99.90;;;;;;5002257;28;19917;-77
2024/01/23 01:18:13;;;;;;;;;;;6.40;99.90;;;;;;4995769;28;19913;-77
2024/01/23 01:21:00;;;;;;;;;;;6.40;99.90;;;;;;5021569;28;19921;-79
2024/01/23 01:23:46;;;;;;;;;;;6.40;99.90;;;;;;5008519;28;19917;-76
2024/01/23 01:26:32;;;;;;;;;;;6.40;99.90;;;;;;5007467;28;19928;-76
2024/01/23 01:29:17;;;;;;;;;;;6.30;99.90;;;;;;5021009;28;19917;-76
2024/01/23 01:32:05;;;;;;;;;;;6.30;99.90;;;;;;5013919;28;20338;-76
2024/01/23 01:34:52;;;;;;;;;;;6.30;99.90;;;;;;4988616;28;19917;-77
2024/01/23 01:37:38;;;;;;;;;;;6.30;99.90;;;;;;5001522;28;20008;-76
2024/01/23 01:40:25;;;;;;;;;;;6.20;99.90;;;;;;5015062;28;19944;-76
2024/01/23 01:43:27;;;;;;;;;;;6.20;99.90;;;;;;5002908;28;19929;-77
2024/01/23 01:46:24;;;;;;;;;;;6.20;99.90;;;;;;5003284;28;19932;-77
2024/01/23 01:49:10;;;;;;;;;;;6.10;99.90;;;;;;5011058;28;19917;-76
2024/01/23 01:51:56;;;;;;;;;;;6.10;99.90;;;;;;5008385;28;19917;-77
2024/01/23 01:54:43;;;;;;;;;;;6.10;99.90;;;;;;5000727;28;20336;-78
2024/01/23 01:57:31;;;;;;;;;;;6.10;99.90;;;;;;5014535;28;19918;-77
2024/01/23 02:00:17;;;;;;;;;;;6.10;99.90;;;;;;5001518;28;19961;-76
2024/01/23 02:03:03;;;;;;;;;;;6.10;99.90;;;;;;5035981;28;19920;-77
2024/01/23 02:05:49;;;;;;;;;;;6.00;99.90;;;;;;4998621;28;20364;-77
2024/01/23 02:08:36;;;;;;;;;;;6.10;99.90;;;;;;5006715;28;19952;-76
2024/01/23 02:11:22;;;;;;;;;;;6.00;99.90;;;;;;5012160;28;20020;-78
2024/01/23 02:14:08;;;;;;;;;;;6.00;99.90;;;;;;5001833;28;19948;-78
2024/01/23 02:16:54;;;;;;;;;;;6.00;99.90;;;;;;4999754;28;19921;-77
2024/01/23 02:19:40;;;;;;;;;;;6.00;99.90;;;;;;5013468;28;19921;-78
2024/01/23 02:22:25;;;;;;;;;;;6.00;99.90;;;;;;5019954;28;19987;-78
2024/01/23 02:25:13;;;;;;;;;;;6.00;99.90;;;;;;5006969;28;19914;-79
2024/01/23 02:28:00;;;;;;;;;;;6.00;99.90;;;;;;5021267;28;20014;-78
2024/01/23 02:30:45;;;;;;;;;;;6.00;99.90;;;;;;5020908;28;20008;-78
2024/01/23 02:33:31;;;;;;;;;;;6.10;99.90;;;;;;5006420;28;19984;-78
2024/01/23 02:36:17;;;;;;;;;;;6.10;99.90;;;;;;5005388;28;19913;-78
2024/01/23 02:39:03;;;;;;;;;;;6.10;99.90;;;;;;4994642;28;19932;-77
2024/01/23 02:41:49;;;;;;;;;;;6.10;99.90;;;;;;5001709;28;19921;-75
2024/01/23 02:44:36;;;;;;;;;;;6.10;99.90;;;;;;5001250;28;19967;-76
2024/01/23 02:47:21;;;;;;;;;;;6.10;99.90;;;;;;5000739;28;19914;-76
2024/01/23 02:50:09;;;;;;;;;;;6.10;99.90;;;;;;4991779;28;19927;-76
2024/01/23 02:52:54;;;;;;;;;;;6.10;99.90;;;;;;5020704;28;19913;-77
2024/01/23 02:55:41;;;;;;;;;;;6.10;99.90;;;;;;5006253;28;20007;-76
2024/01/23 02:58:27;;;;;;;;;;;6.20;99.90;;;;;;5001696;28;20274;-76
2024/01/23 03:01:13;;;;;;;;;;;6.20;99.90;;;;;;4987069;28;19959;-76
2024/01/23 03:03:59;;;;;;;;;;;6.20;99.90;;;;;;5009638;28;19913;-77
2024/01/23 03:06:45;;;;;;;;;;;6.20;99.90;;;;;;5015030;28;19980;-76
2024/01/23 03:09:31;;;;;;;;;;;6.20;99.90;;;;;;4988238;28;20215;-78
2024/01/23 03:12:17;;;;;;;;;;;6.20;99.90;;;;;;5001371;28;19918;-78
2024/01/23 03:15:03;;;;;;;;;;;6.20;99.90;;;;;;5006960;28;19921;-77
2024/01/23 03:17:49;;;;;;;;;;;6.10;99.90;;;;;;5006519;28;20420;-76
2024/01/23 03:20:35;;;;;;;;;;;6.10;99.90;;;;;;5007191;28;19925;-78
2024/01/23 03:23:21;;;;;;;;;;;6.10;99.90;;;;;;4998753;28;19947;-78
2024/01/23 03:26:07;;;;;;;;;;;6.10;99.90;;;;;;5000040;28;20329;-78
2024/01/23 03:28:53;;;;;;;;;;;6.10;99.90;;;;;;5006853;28;19928;-78
2024/01/23 03:31:38;;;;;;;;;;;6.20;99.90;;;;;;5019846;28;20760;-78
2024/01/23 03:34:25;;;;;;;;;;;6.10;99.90;;;;;;5000388;28;20000;-78
2024/01/23 03:37:11;;;;;;;;;;;6.10;99.90;;;;;;5002207;28;20000;-78
2024/01/23 03:39:57;;;;;;;;;;;6.20;99.90;;;;;;5006877;28;20322;-78
2024/01/23 03:42:43;;;;;;;;;;;6.20;99.90;;;;;;5005077;28;19918;-78
2024/01/23 03:45:29;;;;;;;;;;;6.20;99.90;;;;;;5010163;28;19948;-78
2024/01/23 03:48:14;;;;;;;;;;;6.20;99.90;;;;;;5015689;28;19921;-78
2024/01/23 03:51:00;;;;;;;;;;;6.20;99.90;;;;;;4999082;28;19918;-77
2024/01/23 03:53:46;;;;;;;;;;;6.20;99.90;;;;;;5017187;28;19914;-78
2024/01/23 03:56:32;;;;;;;;;;;6.20;99.90;;;;;;5027743;28;20587;-78
2024/01/23 03:59:18;;;;;;;;;;;6.20;99.90;;;;;;5018937;28;19928;-79
2024/01/23 04:02:04;;;;;;;;;;;6.20;99.90;;;;;;5005499;28;19928;-77
2024/01/23 04:04:50;;;;;;;;;;;6.20;99.90;;;;;;5019991;28;20665;-77
2024/01/23 04:07:36;;;;;;;;;;;6.20;99.90;;;;;;5019779;28;19945;-78
2024/01/23 04:10:21;;;;;;;;;;;6.30;99.90;;;;;;5005056;28;19917;-77
2024/01/23 04:13:08;;;;;;;;;;;6.30;99.90;;;;;;5015186;28;19917;-77
2024/01/23 04:16:04;;;;;;;;;;;6.30;99.90;;;;;;5031705;28;19932;-77
2024/01/23 04:18:54;;;;;;;;;;;6.30;99.90;;;;;;5033487;28;19913;-76
2024/01/23 04:21:40;;;;;;;;;;;6.30;99.90;;;;;;5004561;28;19925;-77
2024/01/23 04:24:29;;;;;;;;;;;6.40;99.90;;;;;;5020814;28;19928;-76
2024/01/23 04:27:15;;;;;;;;;;;6.40;99.90;;;;;;5021977;28;20317;-77
2024/01/23 04:30:01;;;;;;;;;;;6.40;99.90;;;;;;5037701;28;20241;-77
2024/01/23 04:32:47;;;;;;;;;;;6.40;99.90;;;;;;5027129;28;19920;-77
2024/01/23 04:35:33;;;;;;;;;;;6.40;99.90;;;;;;5027824;28;19927;-77
2024/01/23 04:38:19;;;;;;;;;;;6.40;99.90;;;;;;5014191;28;20402;-77
2024/01/23 04:41:05;;;;;;;;;;;6.40;99.90;;;;;;5056380;28;19962;-77
2024/01/23 04:43:50;;;;;;;;;;;6.30;99.90;;;;;;5011492;28;20348;-78
2024/01/23 04:46:36;;;;;;;;;;;6.40;99.90;;;;;;5030293;28;19970;-78
2024/01/23 04:49:22;;;;;;;;;;;6.30;99.90;;;;;;5036290;28;19913;-77
2024/01/23 04:52:08;;;;;;;;;;;6.30;99.90;;;;;;5033338;28;20253;-78
2024/01/23 04:54:54;;;;;;;;;;;6.30;99.90;;;;;;5032552;28;19921;-78
2024/01/23 04:57:41;;;;;;;;;;;6.30;99.90;;;;;;5041581;28;20306;-77
2024/01/23 05:00:27;;;;;;;;;;;6.20;99.90;;;;;;5026061;28;20514;-77
2024/01/23 05:03:13;;;;;;;;;;;6.30;99.90;;;;;;5023318;28;19975;-76
2024/01/23 05:05:59;;;;;;;;;;;6.30;99.90;;;;;;5014285;28;20269;-77
2024/01/23 05:08:45;;;;;;;;;;;6.30;99.90;;;;;;5028581;28;19917;-77
2024/01/23 05:11:31;;;;;;;;;;;6.30;99.90;;;;;;5036765;28;19959;-78
2024/01/23 05:14:17;;;;;;;;;;;6.30;99.90;;;;;;5027383;28;20348;-77
2024/01/23 05:17:02;;;;;;;;;;;6.30;99.90;;;;;;5008941;28;20012;-78
2024/01/23 05:19:49;;;;;;;;;;;6.30;99.90;;;;;;5026566;28;19916;-78
2024/01/23 05:22:35;;;;;;;;;;;6.30;99.90;;;;;;5041563;28;19921;-78
2024/01/23 05:25:24;;;;;;;;;;;6.30;99.90;;;;;;5054392;28;19913;-77
2024/01/23 05:28:10;;;;;;;;;;;6.30;99.90;;;;;;5045710;28;19952;-77
2024/01/23 05:30:56;;;;;;;;;;;6.40;99.90;;;;;;5053380;28;19923;-77
2024/01/23 05:33:41;;;;;;;;;;;6.40;99.90;;;;;;5027062;28;19920;-77
2024/01/23 05:36:29;;;;;;;;;;;6.30;99.90;;;;;;5042142;28;19913;-77
2024/01/23 05:39:16;;;;;;;;;;;6.30;99.90;;;;;;5028679;28;19912;-76
2024/01/23 05:42:03;;;;;;;;;;;6.30;99.90;;;;;;5029260;28;19920;-77
2024/01/23 05:44:49;;;;;;;;;;;6.20;99.90;;;;;;5021784;28;19917;-77
2024/01/23 05:47:34;;;;;;;;;;;6.30;99.90;;;;;;5023609;28;19920;-77
2024/01/23 05:50:20;;;;;;;;;;;6.20;99.90;;;;;;5041152;28;19944;-77
2024/01/23 05:53:06;;;;;;;;;;;6.30;99.90;;;;;;5042131;28;19913;-75
2024/01/23 05:55:53;;;;;;;;;;;6.30;99.90;;;;;;5022037;28;19913;-76
2024/01/23 05:58:41;;;;;;;;;;;6.20;99.90;;;;;;5026209;28;19940;-76
2024/01/23 06:01:27;;;;;;;;;;;6.30;99.90;;;;;;5019453;28;19917;-77
2024/01/23 06:04:13;;;;;;;;;;;6.30;99.90;;;;;;5034106;28;20126;-76
2024/01/23 06:06:59;;;;;;;;;;;6.30;99.90;;;;;;5033032;28;20000;-77
2024/01/23 06:09:45;;;;;;;;;;;6.30;99.90;;;;;;5018129;28;20306;-78
2024/01/23 06:12:31;;;;;;;;;;;6.30;99.90;;;;;;4987658;28;19924;-76
2024/01/23 06:15:17;;;;;;;;;;;6.30;99.90;;;;;;4987420;28;19976;-77
2024/01/23 06:18:03;;;;;;;;;;;6.30;99.90;;;;;;4989056;28;19918;-77
2024/01/23 06:20:49;;;;;;;;;;;6.30;99.90;;;;;;5018061;28;20419;-78
2024/01/23 06:23:35;;;;;;;;;;;6.30;99.90;;;;;;5034771;28;19928;-77
2024/01/23 06:26:21;;;;;;;;;;;6.30;99.90;;;;;;5020622;28;19921;-76
2024/01/23 06:29:07;;;;;;;;;;;6.30;99.90;;;;;;5005926;28;19924;-76
2024/01/23 06:31:53;;;;;;;;;;;6.30;99.90;;;;;;5015129;28;19924;-76
2024/01/23 06:34:38;;;;;;;;;;;6.30;99.90;;;;;;5033552;28;19924;-76
2024/01/23 06:37:24;;;;;;;;;;;6.40;99.90;;;;;;5014127;28;19976;-76
2024/01/23 06:40:11;;;;;;;;;;;6.30;99.90;;;;;;5000863;28;19921;-78
2024/01/23 06:42:56;;;;;;;;;;;6.30;99.90;;;;;;4987531;28;19917;-76
2024/01/23 06:45:42;;;;;;;;;;;6.30;99.90;;;;;;4999762;28;20273;-77
2024/01/23 06:48:31;;;;;;;;;;;6.30;99.90;;;;;;5001735;28;19957;-77
2024/01/23 06:51:17;;;;;;;;;;;6.20;99.90;;;;;;4999895;28;19987;-76
2024/01/23 06:54:07;;;;;;;;;;;6.30;99.90;;;;;;5012514;28;20239;-77
2024/01/23 06:56:53;;;;;;;;;;;6.30;99.90;;;;;;5006970;28;19948;-77
2024/01/23 06:59:39;;;;;;;;;;;6.30;99.90;;;;;;5019817;28;19917;-77
2024/01/23 07:02:25;;;;;;;;;;;6.30;99.90;;;;;;5000189;28;20361;-77
2024/01/23 07:05:11;;;;;;;;;;;6.30;99.90;;;;;;5013464;28;20274;-77
2024/01/23 07:07:57;;;;;;;;;;;6.30;99.90;;;;;;5014678;28;19925;-76
2024/01/23 07:10:43;;;;;;;;;;;6.30;99.90;;;;;;5012809;28;20363;-77
2024/01/23 07:13:28;;;;;;;;;;;6.30;99.90;;;;;;5020450;28;19987;-77
2024/01/23 07:16:14;;;;;;;;;;;6.30;99.90;;;;;;5019996;28;19952;-77
2024/01/23 07:19:00;;;;;;;;;;;6.30;99.90;;;;;;5027429;28;19921;-77
2024/01/23 07:21:46;;;;;;;;;;;6.30;99.90;;;;;;5013297;28;20011;-77
2024/01/23 07:24:32;;;;;;;;;;;6.40;99.90;;;;;;5006341;28;19996;-76
2024/01/23 07:27:20;;;;;;;;;;;6.40;99.90;;;;;;5019748;28;19913;-77
2024/01/23 07:30:07;;;;;;;;;;;6.40;99.90;;;;;;5028577;28;19979;-77
2024/01/23 07:32:53;;;;;;;;;;;6.40;99.90;;;;;;4997422;28;19917;-77
2024/01/23 07:35:39;;;;;;;;;;;6.40;99.90;;;;;;5032611;28;20583;-76
2024/01/23 07:38:24;;;;;;;;;;;6.40;99.90;;;;;;5032332;28;20317;-77
2024/01/23 07:41:12;;;;;;;;;;;6.40;99.90;;;;;;5005419;28;19917;-76
2024/01/23 07:43:58;;;;;;;;;;;6.40;99.90;;;;;;5023512;28;20767;-77
2024/01/23 07:46:44;;;;;;;;;;;6.30;99.90;;;;;;5031116;28;19925;-78
2024/01/23 07:49:30;;;;;;;;;;;6.30;99.90;;;;;;5030566;28;19995;-76
2024/01/23 07:52:19;;;;;;;;;;;6.20;99.90;;;;;;5030277;28;19952;-76
2024/01/23 07:55:05;;;;;;;;;;;6.30;99.90;;;;;;5011924;28;19917;-77
2024/01/23 07:57:51;;;;;;;;;;;6.30;99.90;;;;;;5015014;28;20008;-77
2024/01/23 08:00:37;;;;;;;;;;;6.20;99.90;;;;;;5022825;28;20435;-78
2024/01/23 08:03:23;;;;;;;;;;;6.30;99.90;;;;;;5032075;28;19924;-78
2024/01/23 08:06:09;;;;;;;;;;;6.30;99.90;;;;;;5016541;28;19916;-78
2024/01/23 08:08:55;;;;;;;;;;;6.30;99.90;;;;;;5036637;28;20492;-75
2024/01/23 08:11:41;;;;;;;;;;;6.30;99.90;;;;;;5002340;28;19948;-75
2024/01/23 08:14:27;;;;;;;;;;;6.30;99.90;;;;;;5022671;28;20419;-75
2024/01/23 08:17:13;;;;;;;;;;;6.40;99.90;;;;;;5016853;28;19967;-76
2024/01/23 08:19:59;;;;;;;;;;;6.40;99.90;;;;;;5021984;28;19969;-76
2024/01/23 08:22:46;;;;;;;;;;;6.50;99.90;;;;;;5014557;28;20329;-75
2024/01/23 08:25:32;;;;;;;;;;;6.50;99.90;;;;;;5021039;28;19917;-75
2024/01/23 08:28:17;;;;;;;;;;;6.50;99.90;;;;;;5036553;28;19928;-75
2024/01/23 08:31:05;;;;;;;;;;;6.50;99.90;;;;;;5003018;28;20241;-75
2024/01/23 08:33:51;;;;;;;;;;;6.60;99.90;;;;;;5015765;28;19917;-74
2024/01/23 08:36:37;;;;;;;;;;;6.60;99.90;;;;;;5006466;28;20329;-74
2024/01/23 08:39:23;;;;;;;;;;;6.60;99.90;;;;;;5001940;28;19917;-74
2024/01/23 08:42:09;;;;;;;;;;;6.60;99.90;;;;;;5015867;28;19992;-74
2024/01/23 08:44:55;;;;;;;;;;;6.60;99.90;;;;;;5012683;28;19924;-74
2024/01/23 08:47:41;;;;;;;;;;;6.70;99.90;;;;;;5028352;28;19917;-80
2024/01/23 08:50:28;;;;;;;;;;;7.00;99.90;;;;;;5010303;28;19921;-80
2024/01/23 08:53:14;;;;;;;;;;;7.10;99.90;;;;;;5023748;28;19925;-80
2024/01/23 08:56:00;;;;;;;;;;;7.10;99.90;;;;;;5019078;28;19964;-79
2024/01/23 08:58:46;;;;;;;;;;;7.20;99.90;;;;;;4991576;28;19917;-78
2024/01/23 09:01:32;;;;;;;;;;;7.20;99.90;;;;;;5009395;28;19925;-74
2024/01/23 09:04:17;;;;;;;;;;;7.10;99.90;;;;;;5019907;28;19913;-75
2024/01/23 09:07:03;;;;;;;;;;;7.00;99.90;;;;;;5015276;28;19913;-77
2024/01/23 09:09:49;;;;;;;;;;;6.80;99.90;;;;;;5002464;28;19921;-77
2024/01/23 09:12:35;;;;;;;;;;;6.80;99.90;;;;;;4994072;28;19917;-77
2024/01/23 09:15:21;;;;;;;;;;;6.80;99.90;;;;;;5001139;28;19989;-75
2024/01/23 09:18:07;;;;;;;;;;;6.80;99.90;;;;;;4989468;28;19948;-75
2024/01/23 09:20:53;;;;;;;;;;;6.80;99.90;;;;;;5018567;28;20412;-74
2024/01/23 09:23:39;;;;;;;;;;;6.80;99.90;;;;;;5034085;28;19917;-76
2024/01/23 09:26:25;;;;;;;;;;;6.90;99.90;;;;;;4993232;28;19949;-79
2024/01/23 09:29:11;;;;;;;;;;;6.80;99.90;;;;;;5007005;28;19924;-74
2024/01/23 09:31:57;;;;;;;;;;;6.90;99.90;;;;;;5008611;28;19913;-78
2024/01/23 09:34:44;;;;;;;;;;;6.90;99.90;;;;;;5006013;28;19913;-78
2024/01/23 09:37:30;;;;;;;;;;;6.90;99.90;;;;;;5006692;28;19917;-77
2024/01/23 09:40:16;;;;;;;;;;;6.90;99.90;;;;;;5019847;28;19913;-79
2024/01/23 09:43:02;;;;;;;;;;;6.80;99.90;;;;;;5024823;28;19952;-78
2024/01/23 09:45:49;;;;;;;;;;;6.80;99.90;;;;;;5035259;28;20020;-78
2024/01/23 09:48:35;;;;;;;;;;;6.90;99.90;;;;;;5019006;28;19956;-77
2024/01/23 09:51:21;;;;;;;;;;;6.90;99.90;;;;;;5046351;28;20004;-79
2024/01/23 09:54:08;;;;;;;;;;;6.80;99.90;;;;;;5021459;28;19928;-77
2024/01/23 09:56:53;;;;;;;;;;;6.90;99.90;;;;;;5008487;28;19928;-77
2024/01/23 09:59:39;;;;;;;;;;;6.90;99.90;;;;;;5006804;28;19917;-78
2024/01/23 10:02:25;;;;;;;;;;;6.90;99.90;;;;;;4988387;28;19931;-74
2024/01/23 10:05:12;;;;;;;;;;;6.90;99.90;;;;;;4999741;28;19917;-75
2024/01/23 10:07:57;;;;;;;;;;;7.00;99.90;;;;;;5000260;28;20329;-75
2024/01/23 10:10:43;;;;;;;;;;;6.90;99.90;;;;;;4986595;28;19920;-74
2024/01/23 10:13:29;;;;;;;;;;;6.90;99.90;;;;;;5000095;28;19918;-74
2024/01/23 10:16:18;;;;;;;;;;;7.00;99.90;;;;;;5015038;28;19937;-75
2024/01/23 10:19:13;;;;;;;;;;;7.00;99.90;;;;;;5021740;28;19917;-75
2024/01/23 10:21:59;;;;;;;;;;;7.00;99.90;;;;;;5000415;28;20500;-75
2024/01/23 10:24:44;;;;;;;;;;;7.00;99.90;;;;;;5005198;28;19925;-74
2024/01/23 10:27:30;;;;;;;;;;;7.00;99.90;;;;;;5017968;28;19913;-77
2024/01/23 10:30:16;;;;;;;;;;;7.10;99.90;;;;;;5001717;28;19921;-77
2024/01/23 10:33:04;;;;;;;;;;;7.10;99.90;;;;;;5006713;28;19924;-77
2024/01/23 10:35:53;;;;;;;;;;;7.20;99.90;;;;;;5018580;28;19964;-74
2024/01/23 10:38:39;;;;;;;;;;;7.20;99.90;;;;;;4999506;28;19968;-74
2024/01/23 10:41:24;;;;;;;;;;;7.20;99.90;;;;;;5001355;28;19947;-76
2024/01/23 10:44:10;;;;;;;;;;;7.20;99.90;;;;;;4987811;28;20000;-76
2024/01/23 10:46:56;;;;;;;;;;;7.40;99.90;;;;;;4998381;28;19928;-76
2024/01/23 10:49:42;;;;;;;;;;;7.50;99.90;;;;;;5019413;28;19927;-77
2024/01/23 10:52:32;;;;;;;;;;;7.40;99.90;;;;;;5010094;28;20662;-77
2024/01/23 10:55:18;;;;;;;;;;;7.50;99.90;;;;;;5009264;28;19923;-75
2024/01/23 10:58:04;;;;;;;;;;;7.50;99.90;;;;;;5000100;28;19976;-76
2024/01/23 11:00:50;;;;;;;;;;;7.50;99.90;;;;;;5019534;28;19994;-74
2024/01/23 11:03:36;;;;;;;;;;;7.40;99.90;;;;;;5023777;28;20344;-74
2024/01/23 11:06:26;;;;;;;;;;;7.40;99.90;;;;;;5018798;28;19917;-74
2024/01/23 11:09:14;;;;;;;;;;;7.40;99.90;;;;;;5033253;28;20286;-75
2024/01/23 11:12:19;;;;;;;;;;;7.50;99.90;;;;;;5029956;28;20004;-77
2024/01/23 11:15:15;;;;;;;;;;;7.80;99.90;;;;;;5049602;28;19920;-75
2024/01/23 11:18:23;;;;;;;;;;;7.80;99.90;;;;;;5037991;28;19917;-76
2024/01/23 11:21:09;;;;;;;;;;;8.10;99.90;;;;;;5053193;28;19935;-77
2024/01/23 11:24:02;;;;;;;;;;;8.10;99.90;;;;;;5040131;28;19923;-77
2024/01/23 11:26:54;;;;;;;;;;;8.10;99.90;;;;;;5039399;28;19975;-77
2024/01/23 11:29:39;;;;;;;;;;;8.10;99.90;;;;;;5006937;28;20000;-75
2024/01/23 11:32:28;;;;;;;;;;;8.10;99.90;;;;;;5018878;28;19913;-77
2024/01/23 11:35:14;;;;;;;;;;;8.10;99.90;;;;;;5029178;28;20114;-77
2024/01/23 11:38:06;;;;;;;;;;;8.00;99.90;;;;;;5024523;28;20206;-77
2024/01/23 11:40:56;;;;;;;;;;;7.90;99.90;;;;;;5051596;28;20001;-75
2024/01/23 11:43:42;;;;;;;;;;;7.90;99.90;;;;;;5028068;28;19928;-75
2024/01/23 11:46:30;;;;;;;;;;;7.90;99.90;;;;;;5046185;28;19916;-77
2024/01/23 11:49:15;;;;;;;;;;;7.80;99.90;;;;;;5025854;28;20573;-78
2024/01/23 11:52:01;;;;;;;;;;;8.00;99.90;;;;;;5025128;28;20127;-76
2024/01/23 11:54:47;;;;;;;;;;;8.00;99.90;;;;;;5024894;28;20004;-77
2024/01/23 11:57:34;;;;;;;;;;;8.50;99.90;;;;;;5024420;28;19924;-77
2024/01/23 12:00:22;;;;;;;;;;;8.40;99.90;;;;;;5038210;28;19917;-77
2024/01/23 12:03:09;;;;;;;;;;;8.20;99.90;;;;;;5006563;28;19917;-77
2024/01/23 12:05:55;;;;;;;;;;;8.10;99.90;;;;;;5020380;28;19913;-77
2024/01/23 12:08:41;;;;;;;;;;;8.00;99.90;;;;;;5017538;28;19923;-75
2024/01/23 12:11:29;;;;;;;;;;;7.90;99.90;;;;;;5034292;28;19917;-75
2024/01/23 12:14:15;;;;;;;;;;;7.80;99.90;;;;;;5024203;28;19917;-75
2024/01/23 12:17:04;;;;;;;;;;;7.80;99.90;;;;;;5030736;28;20297;-75
2024/01/23 12:19:50;;;;;;;;;;;7.80;99.90;;;;;;5034083;28;19917;-75
2024/01/23 12:22:36;;;;;;;;;;;7.80;99.90;;;;;;5038860;28;20011;-75
2024/01/23 12:25:22;;;;;;;;;;;7.70;99.90;;;;;;5038006;28;19923;-75
2024/01/23 12:28:08;;;;;;;;;;;7.70;99.90;;;;;;5024053;28;19920;-75
2024/01/23 12:30:54;;;;;;;;;;;7.70;99.90;;;;;;5017964;28;20313;-76
2024/01/23 12:33:41;;;;;;;;;;;7.70;99.90;;;;;;5028929;28;19974;-75
2024/01/23 12:36:30;;;;;;;;;;;7.70;99.90;;;;;;5031455;28;19917;-75
2024/01/23 12:39:16;;;;;;;;;;;7.70;99.90;;;;;;5026396;28;19913;-75
2024/01/23 12:42:02;;;;;;;;;;;7.70;99.90;;;;;;5033454;28;19916;-75
2024/01/23 12:44:48;;;;;;;;;;;7.80;99.90;;;;;;5036400;28;20047;-75
2024/01/23 12:47:35;;;;;;;;;;;7.90;99.90;;;;;;5036503;28;19951;-75
2024/01/23 12:50:22;;;;;;;;;;;7.80;99.90;;;;;;5017096;28;19920;-75
2024/01/23 12:53:08;;;;;;;;;;;7.80;99.90;;;;;;5025890;28;19920;-75
2024/01/23 12:55:54;;;;;;;;;;;7.80;99.90;;;;;;5040396;28;19952;-75
2024/01/23 12:58:40;;;;;;;;;;;7.80;99.90;;;;;;5037880;28;19916;-75
2024/01/23 13:01:26;;;;;;;;;;;7.80;99.90;;;;;;5040213;28;19924;-75
2024/01/23 13:04:12;;;;;;;;;;;7.90;99.90;;;;;;5034639;28;20597;-75
2024/01/23 13:06:58;;;;;;;;;;;7.80;99.90;;;;;;5032378;28;20007;-75
2024/01/23 13:09:45;;;;;;;;;;;7.80;99.90;;;;;;5036957;28;19919;-75
2024/01/23 13:12:31;;;;;;;;;;;7.80;99.90;;;;;;5032505;28;20605;-75
2024/01/23 13:15:18;;;;;;;;;;;7.70;99.90;;;;;;5022535;28;20403;-75
2024/01/23 13:18:04;;;;;;;;;;;7.70;99.90;;;;;;5030812;28;20362;-75
2024/01/23 13:20:51;;;;;;;;;;;7.70;99.90;;;;;;5036436;28;20336;-75
2024/01/23 13:23:38;;;;;;;;;;;7.70;99.90;;;;;;5040313;28;19917;-75
2024/01/23 13:26:24;;;;;;;;;;;7.70;99.90;;;;;;5040403;28;19931;-75
2024/01/23 13:29:11;;;;;;;;;;;7.70;99.90;;;;;;5013432;28;19927;-75
2024/01/23 13:31:57;;;;;;;;;;;7.70;99.90;;;;;;5026104;28;19967;-75
2024/01/23 13:34:43;;;;;;;;;;;7.70;99.90;;;;;;5040590;28;19912;-74
2024/01/23 13:37:31;;;;;;;;;;;7.70;99.90;;;;;;5030229;28;19921;-74
2024/01/23 13:40:19;;;;;;;;;;;7.80;99.90;;;;;;5024143;28;19917;-74
2024/01/23 13:43:06;;;;;;;;;;;7.80;99.90;;;;;;5024553;28;19932;-75
2024/01/23 13:45:53;;;;;;;;;;;7.80;99.90;;;;;;5052948;28;19947;-74
2024/01/23 13:48:42;;;;;;;;;;;7.70;99.90;;;;;;5031757;28;19917;-75
2024/01/23 13:51:29;;;;;;;;;;;7.70;99.90;;;;;;5018623;28;19921;-75
2024/01/23 13:54:15;;;;;;;;;;;7.70;99.90;;;;;;5030480;28;19924;-75
2024/01/23 13:57:01;;;;;;;;;;;7.70;99.90;;;;;;5024267;28;19987;-74
2024/01/23 13:59:48;;;;;;;;;;;7.70;99.90;;;;;;5018584;28;19921;-74
2024/01/23 14:02:35;;;;;;;;;;;7.70;99.90;;;;;;5051970;28;19925;-74
2024/01/23 14:05:21;;;;;;;;;;;7.70;99.90;;;;;;5029711;28;20311;-75
2024/01/23 14:08:09;;;;;;;;;;;7.60;99.90;;;;;;5034872;28;20607;-76
2024/01/23 14:10:55;;;;;;;;;;;7.60;99.90;;;;;;5017710;28;19917;-76
2024/01/23 14:13:41;;;;;;;;;;;7.60;99.90;;;;;;5048169;28;19913;-74
2024/01/23 14:16:28;;;;;;;;;;;7.60;99.90;;;;;;5044815;28;19917;-76
2024/01/23 14:19:14;;;;;;;;;;;7.50;99.90;;;;;;5038671;28;20249;-76
2024/01/23 14:21:59;;;;;;;;;;;7.50;99.90;;;;;;5020458;28;20306;-74
2024/01/23 14:24:45;;;;;;;;;;;7.60;99.90;;;;;;5015892;28;19957;-75
2024/01/23 14:27:31;;;;;;;;;;;7.60;99.90;;;;;;5006677;28;19928;-75
2024/01/23 14:30:17;;;;;;;;;;;7.50;99.90;;;;;;5018427;28;19916;-75
2024/01/23 14:33:04;;;;;;;;;;;7.50;99.90;;;;;;5037966;28;20411;-77
2024/01/23 14:35:50;;;;;;;;;;;7.40;99.90;;;;;;5054139;28;19913;-76
2024/01/23 14:38:36;;;;;;;;;;;7.50;99.90;;;;;;5055051;28;19917;-77
2024/01/23 14:41:22;;;;;;;;;;;7.40;99.90;;;;;;5042515;28;19940;-76
2024/01/23 14:44:08;;;;;;;;;;;7.40;99.90;;;;;;5019301;28;19913;-76
2024/01/23 14:46:54;;;;;;;;;;;7.40;99.90;;;;;;5026706;28;19920;-76
2024/01/23 14:49:40;;;;;;;;;;;7.40;99.90;;;;;;5026011;28;19927;-76
2024/01/23 14:52:26;;;;;;;;;;;7.40;99.90;;;;;;5023996;28;20008;-76
2024/01/23 14:55:12;;;;;;;;;;;7.40;99.90;;;;;;5053990;28;19936;-76
2024/01/23 14:57:58;;;;;;;;;;;7.40;99.90;;;;;;5022109;28;19920;-76
2024/01/23 15:00:43;;;;;;;;;;;7.30;99.90;;;;;;5037207;28;19948;-77
2024/01/23 15:03:29;;;;;;;;;;;7.30;99.90;;;;;;5025001;28;19917;-76
2024/01/23 15:06:15;;;;;;;;;;;7.30;99.90;;;;;;5019876;28;19916;-77
2024/01/23 15:09:03;;;;;;;;;;;7.30;99.90;;;;;;5033019;28;19912;-76
2024/01/23 15:11:49;;;;;;;;;;;7.40;99.90;;;;;;5034482;28;19923;-77
2024/01/23 15:14:35;;;;;;;;;;;7.30;99.90;;;;;;5034701;28;19913;-77
2024/01/23 15:17:22;;;;;;;;;;;7.30;99.90;;;;;;5033643;28;19913;-77
2024/01/23 15:20:09;;;;;;;;;;;7.30;99.90;;;;;;5033938;28;20435;-76
2024/01/23 15:22:54;;;;;;;;;;;7.30;99.90;;;;;;5034025;28;19936;-76
2024/01/23 15:25:40;;;;;;;;;;;7.30;99.90;;;;;;5038672;28;19913;-77
2024/01/23 15:28:28;;;;;;;;;;;7.30;99.90;;;;;;5053154;28;19917;-76
2024/01/23 15:31:15;;;;;;;;;;;7.30;99.90;;;;;;5050323;28;20367;-76
2024/01/23 15:34:01;;;;;;;;;;;7.20;99.90;;;;;;5040551;28;20003;-77
2024/01/23 15:36:50;;;;;;;;;;;7.20;99.90;;;;;;5022235;28;19913;-77
2024/01/23 15:39:36;;;;;;;;;;;7.10;99.90;;;;;;5042714;28;20004;-77
2024/01/23 15:42:23;;;;;;;;;;;7.10;99.90;;;;;;5048407;28;20039;-77
2024/01/23 15:45:09;;;;;;;;;;;7.10;99.90;;;;;;5019952;28;20107;-77
2024/01/23 15:47:55;;;;;;;;;;;7.10;99.90;;;;;;5019985;28;20279;-77
2024/01/23 15:50:45;;;;;;;;;;;7.10;99.90;;;;;;5020583;28;19924;-77
2024/01/23 15:53:34;;;;;;;;;;;7.10;99.90;;;;;;5006801;28;19914;-76
2024/01/23 15:56:20;;;;;;;;;;;7.00;99.90;;;;;;5033790;28;19917;-76
2024/01/23 15:59:07;;;;;;;;;;;7.00;99.90;;;;;;5020767;28;20051;-77
2024/01/23 16:01:53;;;;;;;;;;;7.00;99.90;;;;;;5023909;28;20345;-78
2024/01/23 16:04:39;;;;;;;;;;;7.00;99.90;;;;;;5021244;28;19917;-78
2024/01/23 16:07:25;;;;;;;;;;;7.00;99.90;;;;;;5030578;28;19931;-78
2024/01/23 16:10:10;;;;;;;;;;;6.90;99.90;;;;;;5024089;28;19972;-77
2024/01/23 16:12:56;;;;;;;;;;;7.00;99.90;;;;;;5037717;28;19927;-78
2024/01/23 16:15:42;;;;;;;;;;;6.90;99.90;;;;;;5034125;28;19925;-77
2024/01/23 16:18:28;;;;;;;;;;;6.90;99.90;;;;;;5023782;28;19916;-78
2024/01/23 16:21:16;;;;;;;;;;;6.90;99.90;;;;;;5019797;28;19921;-78
2024/01/23 16:24:02;;;;;;;;;;;6.90;99.90;;;;;;5017490;28;20007;-77